createdAt,value
2023-03-05T00:02:06.627Z,99119.80
2023-03-05T00:04:35.219Z,99116.59
2023-03-05T00:07:05.621Z,99127.33
2023-03-05T00:09:35.989Z,99126.28
2023-03-05T00:12:06.386Z,99122.86
2023-03-05T00:14:36.500Z,99134.06
2023-03-05T00:17:05.278Z,99132.66
2023-03-05T00:19:33.927Z,99130.63
2023-03-05T00:22:02.781Z,99146.92
2023-03-05T00:24:33.423Z,99149.73
2023-03-05T00:27:02.126Z,99149.70
2023-03-05T00:29:31.824Z,99156.77
2023-03-05T00:32:00.707Z,99153.73
2023-03-05T00:34:31.849Z,99151.52
2023-03-05T00:37:01.535Z,99157.55
2023-03-05T00:39:31.751Z,99157.36
2023-03-05T00:42:00.464Z,99157.70
2023-03-05T00:44:30.142Z,99166.08
2023-03-05T00:46:59.191Z,99166.73
2023-03-05T00:49:29.568Z,99159.83
2023-03-05T00:51:58.327Z,99178.30
2023-03-05T00:54:27.121Z,99173.77
2023-03-05T00:56:56.702Z,99183.14
2023-03-05T00:59:28.269Z,99185.98
2023-03-05T01:01:57.245Z,99198.88
2023-03-05T01:04:28.905Z,99197.84
2023-03-05T01:06:59.250Z,99191.93
2023-03-05T01:09:28.809Z,99201.84
2023-03-05T01:11:57.693Z,99205.02
2023-03-05T01:14:28.569Z,99207.21
2023-03-05T01:16:58.272Z,99207.21
2023-03-05T01:19:28.218Z,99209.20
2023-03-05T01:21:56.974Z,99202.79
2023-03-05T01:24:27.364Z,99206.48
2023-03-05T01:26:56.323Z,99211.50
2023-03-05T01:29:24.836Z,99200.86
2023-03-05T01:31:53.766Z,99215.10
2023-03-05T01:34:22.687Z,99214.26
2023-03-05T01:36:52.862Z,99223.66
2023-03-05T01:39:21.816Z,99225.08
2023-03-05T01:41:50.305Z,99215.13
2023-03-05T01:44:26.442Z,99220.00
2023-03-05T01:46:55.900Z,99222.64
2023-03-05T01:49:31.685Z,99237.22
2023-03-05T01:52:16.515Z,99227.97
2023-03-05T01:54:54.919Z,99233.69
2023-03-05T01:57:28.617Z,99230.51
2023-03-05T02:00:09.895Z,99232.34
2023-03-05T02:02:44.699Z,99224.29
2023-03-05T02:05:26.810Z,99244.09
2023-03-05T02:08:00.379Z,99241.05
2023-03-05T02:10:36.555Z,99251.95
2023-03-05T02:13:16.622Z,99242.34
2023-03-05T02:15:47.015Z,99242.64
2023-03-05T02:18:17.279Z,99244.98
2023-03-05T02:20:56.674Z,99257.07
2023-03-05T02:23:28.611Z,99247.52
2023-03-05T02:25:58.972Z,99262.80
2023-03-05T02:28:41.977Z,99256.87
2023-03-05T02:31:13.216Z,99256.03
2023-03-05T02:33:43.100Z,99267.66
2023-03-05T02:36:13.920Z,99259.80
2023-03-05T02:38:43.620Z,99257.17
2023-03-05T02:41:12.696Z,99262.24
2023-03-05T02:43:42.454Z,99266.63
2023-03-05T02:46:12.630Z,99260.91
2023-03-05T02:48:42.944Z,99268.31
2023-03-05T02:51:13.549Z,99272.49
2023-03-05T02:53:45.628Z,99260.70
2023-03-05T02:56:14.448Z,99270.40
2023-03-05T02:58:44.232Z,99269.05
2023-03-05T03:01:13.900Z,99264.23
2023-03-05T03:03:43.672Z,99272.14
2023-03-05T03:06:12.517Z,99261.59
2023-03-05T03:08:42.547Z,99265.62
2023-03-05T03:11:13.326Z,99265.43
2023-03-05T03:13:41.933Z,99273.83
2023-03-05T03:16:13.946Z,99272.34
2023-03-05T03:18:44.342Z,99271.00
2023-03-05T03:21:20.583Z,99275.83
2023-03-05T03:23:49.581Z,99278.52
2023-03-05T03:26:19.019Z,99282.69
2023-03-05T03:28:49.953Z,99281.00
2023-03-05T03:31:19.170Z,99280.84
2023-03-05T03:33:48.247Z,99286.22
2023-03-05T03:36:17.243Z,99284.03
2023-03-05T03:38:47.070Z,99279.01
2023-03-05T03:41:16.869Z,99288.11
2023-03-05T03:43:45.751Z,99276.37
2023-03-05T03:46:16.249Z,99284.43
2023-03-05T03:48:45.453Z,99289.45
2023-03-05T03:51:14.113Z,99281.39
2023-03-05T03:53:42.827Z,99292.64
2023-03-05T03:56:13.098Z,99276.63
2023-03-05T03:58:43.752Z,99277.41
2023-03-05T04:01:13.144Z,99286.47
2023-03-05T04:03:41.776Z,99277.70
2023-03-05T04:06:12.485Z,99288.10
2023-03-05T04:08:42.874Z,99291.93
2023-03-05T04:11:13.540Z,99291.09
2023-03-05T04:13:42.458Z,99279.99
2023-03-05T04:16:11.343Z,99288.40
2023-03-05T04:18:42.043Z,99286.61
2023-03-05T04:21:11.009Z,99285.67
2023-03-05T04:23:41.509Z,99297.41
2023-03-05T04:26:10.717Z,99290.49
2023-03-05T04:28:40.047Z,99300.14
2023-03-05T04:31:08.831Z,99305.95
2023-03-05T04:33:39.937Z,99296.05
2023-03-05T04:36:09.827Z,99297.25
2023-03-05T04:38:41.466Z,99292.28
2023-03-05T04:41:10.663Z,99302.43
2023-03-05T04:43:39.441Z,99300.94
2023-03-05T04:46:08.829Z,99296.36
2023-03-05T04:48:37.571Z,99305.12
2023-03-05T04:51:06.363Z,99306.81
2023-03-05T04:53:36.069Z,99305.17
2023-03-05T04:56:07.859Z,99306.72
2023-03-05T04:58:37.729Z,99315.97
2023-03-05T05:01:06.916Z,99319.80
2023-03-05T05:03:37.806Z,99322.28
2023-03-05T05:06:07.379Z,99317.41
2023-03-05T05:08:37.990Z,99312.03
2023-03-05T05:11:08.436Z,99321.78
2023-03-05T05:13:38.643Z,99325.61
2023-03-05T05:16:09.413Z,99336.00
2023-03-05T05:18:38.850Z,99321.93
2023-03-05T05:21:09.614Z,99333.38
2023-03-05T05:23:39.137Z,99346.10
2023-03-05T05:26:09.570Z,99339.04
2023-03-05T05:28:38.680Z,99333.67
2023-03-05T05:31:11.223Z,99333.38
2023-03-05T05:33:41.625Z,99340.79
2023-03-05T05:36:14.058Z,99348.50
2023-03-05T05:38:42.826Z,99349.05
2023-03-05T05:41:13.769Z,99348.61
2023-03-05T05:43:42.424Z,99342.59
2023-03-05T05:46:17.340Z,99343.53
2023-03-05T05:48:46.500Z,99348.84
2023-03-05T05:51:21.526Z,99344.12
2023-03-05T05:53:51.539Z,99360.94
2023-03-05T05:56:21.915Z,99352.78
2023-03-05T05:58:52.304Z,99350.45
2023-03-05T06:01:29.295Z,99342.23
2023-03-05T06:03:58.691Z,99349.01
2023-03-05T06:06:28.738Z,99346.52
2023-03-05T06:08:58.530Z,99349.21
2023-03-05T06:11:27.281Z,99350.29
2023-03-05T06:13:55.968Z,99354.92
2023-03-05T06:16:26.450Z,99352.48
2023-03-05T06:18:55.951Z,99355.27
2023-03-05T06:21:24.708Z,99354.97
2023-03-05T06:23:54.570Z,99352.93
2023-03-05T06:26:25.564Z,99364.19
2023-03-05T06:28:55.745Z,99363.83
2023-03-05T06:31:26.199Z,99363.63
2023-03-05T06:33:57.763Z,99366.87
2023-03-05T06:36:27.140Z,99369.45
2023-03-05T06:38:55.985Z,99363.83
2023-03-05T06:41:28.666Z,99367.02
2023-03-05T06:44:02.143Z,99361.30
2023-03-05T06:46:35.389Z,99368.86
2023-03-05T06:49:05.014Z,99372.55
2023-03-05T06:51:38.468Z,99370.35
2023-03-05T06:54:10.746Z,99379.46
2023-03-05T06:56:43.747Z,99378.47
2023-03-05T06:59:14.194Z,99382.20
2023-03-05T07:01:45.151Z,99392.66
2023-03-05T07:04:14.853Z,99386.28
2023-03-05T07:06:43.772Z,99379.41
2023-03-05T07:09:15.465Z,99387.17
2023-03-05T07:11:44.270Z,99386.03
2023-03-05T07:14:13.542Z,99386.72
2023-03-05T07:16:43.788Z,99386.62
2023-03-05T07:19:14.099Z,99381.52
2023-03-05T07:21:43.451Z,99391.47
2023-03-05T07:24:14.057Z,99390.63
2023-03-05T07:26:43.398Z,99393.02
2023-03-05T07:29:12.663Z,99403.86
2023-03-05T07:31:43.213Z,99395.72
2023-03-05T07:34:13.319Z,99399.34
2023-03-05T07:36:43.972Z,99396.07
2023-03-05T07:39:13.967Z,99397.72
2023-03-05T07:41:42.902Z,99408.79
2023-03-05T07:44:11.581Z,99398.74
2023-03-05T07:46:40.648Z,99410.05
2023-03-05T07:49:09.548Z,99416.13
2023-03-05T07:51:40.430Z,99417.16
2023-03-05T07:54:11.016Z,99418.00
2023-03-05T07:56:40.127Z,99412.93
2023-03-05T07:59:11.534Z,99410.96
2023-03-05T08:01:40.635Z,99406.64
2023-03-05T08:04:11.111Z,99416.13
2023-03-05T08:06:42.952Z,99407.58
2023-03-05T08:09:11.643Z,99424.95
2023-03-05T08:11:42.217Z,99419.28
2023-03-05T08:14:11.672Z,99417.73
2023-03-05T08:16:40.358Z,99417.14
2023-03-05T08:19:10.516Z,99413.08
2023-03-05T08:21:42.506Z,99419.61
2023-03-05T08:24:11.746Z,99414.72
2023-03-05T08:26:42.154Z,99419.20
2023-03-05T08:29:12.893Z,99418.69
2023-03-05T08:31:46.169Z,99423.75
2023-03-05T08:34:15.114Z,99418.45
2023-03-05T08:36:44.019Z,99422.84
2023-03-05T08:39:12.771Z,99416.94
2023-03-05T08:41:43.566Z,99427.05
2023-03-05T08:44:13.791Z,99419.86
2023-03-05T08:46:44.351Z,99419.51
2023-03-05T08:49:13.321Z,99419.84
2023-03-05T08:51:42.587Z,99415.72
2023-03-05T08:54:11.801Z,99421.59
2023-03-05T08:56:40.412Z,99424.19
2023-03-05T08:59:12.590Z,99418.33
2023-03-05T09:01:40.968Z,99413.61
2023-03-05T09:04:10.029Z,99418.36
2023-03-05T09:06:41.527Z,99416.18
2023-03-05T09:09:13.872Z,99424.33
2023-03-05T09:11:44.335Z,99422.63
2023-03-05T09:14:13.841Z,99418.90
2023-03-05T09:16:44.111Z,99432.62
2023-03-05T09:19:14.777Z,99431.47
2023-03-05T09:21:43.842Z,99438.55
2023-03-05T09:24:14.096Z,99436.69
2023-03-05T09:26:44.107Z,99436.86
2023-03-05T09:29:14.045Z,99440.58
2023-03-05T09:31:44.122Z,99439.22
2023-03-05T09:34:13.141Z,99436.50
2023-03-05T09:36:42.271Z,99440.89
2023-03-05T09:39:10.904Z,99433.92
2023-03-05T09:42:03.332Z,99436.84
2023-03-05T09:45:10.973Z,99432.13
2023-03-05T09:48:01.736Z,99434.49
2023-03-05T09:50:47.232Z,99429.94
2023-03-05T09:53:30.890Z,99422.33
2023-03-05T09:56:02.622Z,99429.94
2023-03-05T09:58:38.888Z,99426.22
2023-03-05T10:01:13.850Z,99433.48
2023-03-05T10:04:12.712Z,99428.08
2023-03-05T10:07:10.897Z,99418.62
2023-03-05T10:10:00.104Z,99427.23
2023-03-05T10:12:46.752Z,99429.59
2023-03-05T10:15:37.314Z,99435.31
2023-03-05T10:18:44.193Z,99426.03
2023-03-05T10:21:24.280Z,99419.27
2023-03-05T10:24:11.168Z,99418.56
2023-03-05T10:27:04.603Z,99410.12
2023-03-05T10:29:47.258Z,99411.64
2023-03-05T10:32:52.199Z,99415.23
2023-03-05T10:35:43.379Z,99416.59
2023-03-05T10:38:45.368Z,99407.81
2023-03-05T10:41:38.420Z,99399.20
2023-03-05T10:44:33.673Z,99409.16
2023-03-05T10:47:02.309Z,99401.90
2023-03-05T10:49:34.124Z,99401.05
2023-03-05T10:52:18.432Z,99423.69
2023-03-05T10:54:47.913Z,99416.42
2023-03-05T10:57:21.147Z,99411.52
2023-03-05T11:00:08.753Z,99419.61
2023-03-05T11:02:47.949Z,99418.05
2023-03-05T11:05:46.708Z,99418.56
2023-03-05T11:08:34.024Z,99414.01
2023-03-05T11:11:14.038Z,99405.44
2023-03-05T11:14:00.387Z,99403.92
2023-03-05T11:16:35.959Z,99402.41
2023-03-05T11:19:32.257Z,99401.22
2023-03-05T11:22:22.740Z,99403.58
2023-03-05T11:25:16.131Z,99402.41
2023-03-05T11:27:54.981Z,99395.98
2023-03-05T11:30:35.955Z,99391.59
2023-03-05T11:33:20.102Z,99401.90
2023-03-05T11:35:52.149Z,99395.98
2023-03-05T11:38:26.480Z,99381.78
2023-03-05T11:40:56.467Z,99381.09
2023-03-05T11:43:26.792Z,99385.33
2023-03-05T11:46:05.163Z,99391.25
2023-03-05T11:48:37.229Z,99386.18
2023-03-05T11:51:32.909Z,99393.95
2023-03-05T11:54:07.396Z,99393.11
2023-03-05T11:56:39.052Z,99395.47
2023-03-05T11:59:25.528Z,99388.03
2023-03-05T12:01:56.758Z,99391.41
2023-03-05T12:04:25.783Z,99385.82
2023-03-05T12:07:03.748Z,99379.08
2023-03-05T12:09:49.995Z,99379.58
2023-03-05T12:12:56.258Z,99382.44
2023-03-05T12:15:49.990Z,99380.56
2023-03-05T12:18:35.466Z,99393.21
2023-03-05T12:21:26.645Z,99396.75
2023-03-05T12:24:04.790Z,99386.61
2023-03-05T12:27:05.674Z,99393.55
2023-03-05T12:29:47.753Z,99387.29
2023-03-05T12:32:31.418Z,99383.20
2023-03-05T12:35:06.231Z,99381.33
2023-03-05T12:37:53.906Z,99381.63
2023-03-05T12:40:30.411Z,99380.10
2023-03-05T12:43:04.524Z,99388.06
2023-03-05T12:45:41.393Z,99395.02
2023-03-05T12:48:20.007Z,99395.22
2023-03-05T12:50:51.458Z,99390.13
2023-03-05T12:53:21.124Z,99392.52
2023-03-05T12:55:56.051Z,99389.33
2023-03-05T12:58:49.695Z,99385.79
2023-03-05T13:01:38.945Z,99388.50
2023-03-05T13:04:24.504Z,99380.90
2023-03-05T13:07:06.006Z,99371.92
2023-03-05T13:09:36.581Z,99376.98
2023-03-05T13:12:10.986Z,99372.92
2023-03-05T13:14:46.323Z,99369.21
2023-03-05T13:17:44.090Z,99384.94
2023-03-05T13:20:37.438Z,99377.16
2023-03-05T13:23:24.699Z,99379.02
2023-03-05T13:26:02.752Z,99378.02
2023-03-05T13:28:32.741Z,99374.83
2023-03-05T13:31:04.182Z,99365.88
2023-03-05T13:33:35.753Z,99369.95
2023-03-05T13:36:06.976Z,99363.70
2023-03-05T13:38:40.580Z,99359.30
2023-03-05T13:41:27.223Z,99362.17
2023-03-05T13:44:01.340Z,99354.55
2023-03-05T13:46:35.332Z,99354.38
2023-03-05T13:49:33.015Z,99358.94
2023-03-05T13:52:06.409Z,99355.22
2023-03-05T13:54:35.173Z,99356.56
2023-03-05T13:57:07.585Z,99357.09
2023-03-05T13:59:39.189Z,99356.77
2023-03-05T14:02:20.322Z,99353.39
2023-03-05T14:04:50.490Z,99354.41
2023-03-05T14:07:39.517Z,99348.16
2023-03-05T14:10:34.521Z,99349.84
2023-03-05T14:13:08.628Z,99347.14
2023-03-05T14:15:40.355Z,99342.92
2023-03-05T14:18:19.928Z,99336.98
2023-03-05T14:21:12.607Z,99347.30
2023-03-05T14:23:43.732Z,99337.32
2023-03-05T14:26:28.765Z,99337.48
2023-03-05T14:29:06.678Z,99336.84
2023-03-05T14:32:02.931Z,99333.44
2023-03-05T14:34:36.516Z,99329.38
2023-03-05T14:37:09.112Z,99336.48
2023-03-05T14:40:07.840Z,99334.12
2023-03-05T14:42:59.628Z,99339.38
2023-03-05T14:45:35.222Z,99341.41
2023-03-05T14:48:07.336Z,99339.55
2023-03-05T14:50:44.578Z,99341.23
2023-03-05T14:53:16.913Z,99335.49
2023-03-05T14:55:50.043Z,99337.17
2023-03-05T14:58:21.818Z,99329.73
2023-03-05T15:00:51.472Z,99336.33
2023-03-05T15:03:23.131Z,99337.67
2023-03-05T15:05:54.721Z,99335.16
2023-03-05T15:08:26.538Z,99336.17
2023-03-05T15:10:55.268Z,99335.50
2023-03-05T15:13:26.172Z,99339.73
2023-03-05T15:15:55.429Z,99339.56
2023-03-05T15:18:26.032Z,99333.31
2023-03-05T15:20:56.990Z,99343.28
2023-03-05T15:23:28.138Z,99341.59
2023-03-05T15:25:57.462Z,99345.31
2023-03-05T15:28:26.971Z,99340.59
2023-03-05T15:30:58.253Z,99345.66
2023-03-05T15:33:27.702Z,99350.22
2023-03-05T15:35:56.395Z,99351.73
2023-03-05T15:38:25.533Z,99358.66
2023-03-05T15:40:54.327Z,99353.43
2023-03-05T15:43:23.402Z,99350.39
2023-03-05T15:45:52.882Z,99349.03
2023-03-05T15:48:23.304Z,99350.89
2023-03-05T15:50:52.100Z,99361.70
2023-03-05T15:53:22.432Z,99357.31
2023-03-05T15:55:52.388Z,99362.38
2023-03-05T15:58:21.785Z,99366.94
2023-03-05T16:00:52.371Z,99367.78
2023-03-05T16:03:22.863Z,99370.99
2023-03-05T16:05:51.553Z,99375.22
2023-03-05T16:08:21.078Z,99373.36
2023-03-05T16:10:49.851Z,99367.95
2023-03-05T16:13:23.307Z,99374.71
2023-03-05T16:15:54.997Z,99375.72
2023-03-05T16:18:25.164Z,99380.95
2023-03-05T16:20:55.522Z,99382.31
2023-03-05T16:23:25.012Z,99382.81
2023-03-05T16:25:57.190Z,99381.97
2023-03-05T16:28:27.202Z,99383.48
2023-03-05T16:30:57.448Z,99381.30
2023-03-05T16:33:27.706Z,99381.97
2023-03-05T16:36:25.097Z,99378.08
2023-03-05T16:38:58.655Z,99387.88
2023-03-05T16:41:27.543Z,99389.57
2023-03-05T16:43:56.722Z,99393.63
2023-03-05T16:46:27.456Z,99391.25
2023-03-05T16:48:56.181Z,99392.78
2023-03-05T16:51:26.758Z,99392.27
2023-03-05T16:53:56.043Z,99386.19
2023-03-05T16:56:25.193Z,99385.85
2023-03-05T16:58:55.614Z,99393.11
2023-03-05T17:01:24.775Z,99391.25
2023-03-05T17:03:59.773Z,99386.19
2023-03-05T17:06:30.056Z,99388.22
2023-03-05T17:09:01.228Z,99393.28
2023-03-05T17:11:31.073Z,99400.20
2023-03-05T17:14:03.076Z,99389.06
2023-03-05T17:16:32.725Z,99387.55
2023-03-05T17:19:01.425Z,99385.85
2023-03-05T17:21:30.667Z,99381.46
2023-03-05T17:24:00.159Z,99385.17
2023-03-05T17:26:31.541Z,99377.58
2023-03-05T17:29:01.444Z,99376.05
2023-03-05T17:31:30.494Z,99371.63
2023-03-05T17:34:00.333Z,99368.93
2023-03-05T17:36:30.608Z,99375.00
2023-03-05T17:38:59.686Z,99373.81
2023-03-05T17:41:29.306Z,99367.41
2023-03-05T17:43:59.746Z,99376.68
2023-03-05T17:46:28.433Z,99379.55
2023-03-05T17:48:58.839Z,99372.63
2023-03-05T17:51:29.360Z,99376.01
2023-03-05T17:53:59.978Z,99373.65
2023-03-05T17:56:30.011Z,99373.98
2023-03-05T17:58:59.009Z,99377.19
2023-03-05T18:01:32.097Z,99380.39
2023-03-05T18:04:01.401Z,99376.00
2023-03-05T18:06:31.796Z,99382.25
2023-03-05T18:09:00.695Z,99375.50
2023-03-05T18:11:30.489Z,99374.15
2023-03-05T18:14:00.800Z,99373.47
2023-03-05T18:16:32.214Z,99375.83
2023-03-05T18:19:01.122Z,99379.38
2023-03-05T18:21:30.329Z,99378.69
2023-03-05T18:23:59.755Z,99375.30
2023-03-05T18:26:28.566Z,99370.91
2023-03-05T18:28:58.151Z,99373.27
2023-03-05T18:31:29.419Z,99380.36
2023-03-05T18:33:58.930Z,99372.59
2023-03-05T18:36:29.058Z,99380.86
2023-03-05T18:38:58.744Z,99373.09
2023-03-05T18:41:30.421Z,99376.97
2023-03-05T18:44:01.491Z,99383.03
2023-03-05T18:46:31.524Z,99375.61
2023-03-05T18:49:01.060Z,99368.19
2023-03-05T18:51:30.873Z,99368.17
2023-03-05T18:54:03.404Z,99366.30
2023-03-05T18:56:33.877Z,99367.48
2023-03-05T18:59:03.088Z,99379.78
2023-03-05T19:01:32.230Z,99375.19
2023-03-05T19:04:00.949Z,99374.33
2023-03-05T19:06:29.962Z,99376.85
2023-03-05T19:09:17.849Z,99379.71
2023-03-05T19:11:48.473Z,99386.96
2023-03-05T19:14:18.445Z,99375.31
2023-03-05T19:16:54.012Z,99379.84
2023-03-05T19:19:24.931Z,99375.44
2023-03-05T19:21:57.737Z,99373.06
2023-03-05T19:24:28.900Z,99372.55
2023-03-05T19:26:59.425Z,99374.72
2023-03-05T19:29:31.009Z,99371.17
2023-03-05T19:31:59.529Z,99371.68
2023-03-05T19:34:30.036Z,99376.05
2023-03-05T19:36:58.623Z,99379.73
2023-03-05T19:39:27.326Z,99376.49
2023-03-05T19:41:56.365Z,99377.64
2023-03-05T19:44:25.490Z,99376.27
2023-03-05T19:46:54.381Z,99376.93
2023-03-05T19:49:25.103Z,99375.87
2023-03-05T19:51:54.062Z,99377.22
2023-03-05T19:54:22.813Z,99378.91
2023-03-05T19:56:55.490Z,99375.02
2023-03-05T19:59:24.814Z,99370.61
2023-03-05T20:01:53.903Z,99376.16
2023-03-05T20:04:23.371Z,99373.47
2023-03-05T20:06:52.293Z,99370.75
2023-03-05T20:09:25.236Z,99365.17
2023-03-05T20:11:54.169Z,99366.84
2023-03-05T20:14:23.392Z,99361.11
2023-03-05T20:16:54.407Z,99369.69
2023-03-05T20:19:23.567Z,99356.03
2023-03-05T20:21:52.298Z,99361.27
2023-03-05T20:24:24.188Z,99357.89
2023-03-05T20:26:52.966Z,99359.89
2023-03-05T20:29:23.433Z,99357.52
2023-03-05T20:31:52.957Z,99366.60
2023-03-05T20:34:22.332Z,99355.48
2023-03-05T20:36:51.215Z,99350.91
2023-03-05T20:39:21.038Z,99341.95
2023-03-05T20:41:51.176Z,99334.88
2023-03-05T20:44:22.195Z,99332.84
2023-03-05T20:47:07.206Z,99326.09
2023-03-05T20:49:41.808Z,99321.20
2023-03-05T20:52:10.452Z,99315.66
2023-03-05T20:54:39.428Z,99328.44
2023-03-05T20:57:09.153Z,99330.78
2023-03-05T20:59:39.452Z,99330.44
2023-03-05T21:02:10.151Z,99334.14
2023-03-05T21:04:39.977Z,99324.87
2023-03-05T21:07:10.748Z,99316.29
2023-03-05T21:09:39.479Z,99324.69
2023-03-05T21:12:08.872Z,99326.84
2023-03-05T21:14:38.145Z,99321.09
2023-03-05T21:17:09.440Z,99317.83
2023-03-05T21:19:39.732Z,99320.68
2023-03-05T21:22:08.524Z,99324.53
2023-03-05T21:24:44.500Z,99324.16
2023-03-05T21:27:25.311Z,99326.66
2023-03-05T21:33:51.509Z,99317.95
2023-03-05T21:36:21.988Z,99323.47
2023-03-05T21:38:51.260Z,99323.47
2023-03-05T21:41:22.863Z,99324.31
2023-03-05T21:43:51.819Z,99322.28
2023-03-05T21:46:20.618Z,99324.28
2023-03-05T21:48:52.980Z,99317.36
2023-03-05T21:51:38.959Z,99317.17
2023-03-05T21:54:18.645Z,99315.14
2023-03-05T21:56:47.847Z,99317.64
2023-03-05T21:59:19.382Z,99312.88
2023-03-05T22:01:48.418Z,99314.84
2023-03-05T22:04:17.368Z,99311.30
2023-03-05T22:06:46.178Z,99314.53
2023-03-05T22:09:15.592Z,99314.56
2023-03-05T22:11:44.733Z,99306.19
2023-03-05T22:14:16.150Z,99316.30
2023-03-05T22:16:44.912Z,99312.56
2023-03-05T22:19:14.945Z,99312.72
2023-03-05T22:21:43.792Z,99316.26
2023-03-05T22:24:14.091Z,99317.26
2023-03-05T22:26:43.397Z,99317.26
2023-03-05T22:29:12.882Z,99311.19
2023-03-05T22:31:41.654Z,99310.53
2023-03-05T22:34:10.946Z,99311.88
2023-03-05T22:36:40.753Z,99314.72
2023-03-05T22:39:09.518Z,99308.84
2023-03-05T22:41:41.490Z,99308.65
2023-03-05T22:44:11.444Z,99312.15
2023-03-05T22:46:40.187Z,99312.30
2023-03-05T22:49:10.634Z,99311.80
2023-03-05T22:51:39.362Z,99313.16
2023-03-05T22:54:08.761Z,99312.80
2023-03-05T22:56:37.375Z,99310.77
2023-03-05T22:59:08.062Z,99309.42
2023-03-05T23:01:36.705Z,99309.92
2023-03-05T23:04:13.924Z,99301.66
2023-03-05T23:06:47.730Z,99302.66
2023-03-05T23:09:16.481Z,99299.63
2023-03-05T23:11:46.215Z,99296.28
2023-03-05T23:14:14.928Z,99291.09
2023-03-05T23:16:45.509Z,99299.35
2023-03-05T23:19:15.216Z,99287.09
2023-03-05T23:21:43.962Z,99291.31
2023-03-05T23:24:14.197Z,99289.81
2023-03-05T23:26:43.200Z,99288.16
2023-03-05T23:29:34.599Z,99288.34
2023-03-05T23:32:04.337Z,99269.88
2023-03-05T23:34:34.259Z,99267.91
2023-03-05T23:37:24.736Z,99268.94
2023-03-05T23:39:53.396Z,99261.55
2023-03-05T23:42:23.935Z,99257.54
2023-03-05T23:44:55.393Z,99261.27
2023-03-05T23:47:24.360Z,99260.76
2023-03-05T23:49:53.715Z,99250.84
2023-03-05T23:52:22.472Z,99256.75
2023-03-05T23:54:51.098Z,99257.47
2023-03-05T23:57:19.896Z,99248.39
2023-03-05T23:59:48.731Z,99254.12
